Terminal Aerodrome Forecast
Issued by NWS

Home | Current Version | Previous Version | Text Only | Print | Product List | Glossary On
Versions: 1 2 3 4 5 6 7 8 9 10 11 12 13 14 15
705
FTUS41 KBTV 220032 AAA
TAFMPV
TAF AMD
KMPV 220032Z 2201/2224 27005KT P6SM SCT050 SCT100
      TEMPO 2201/2202 4SM -SHRA BR OVC040
     FM220530 26004KT 2SM BR OVC050
     FM220600 25004KT 1/4SM FG OVC001
     FM221300 VRB03KT 2SM BR OVC025
     FM221330 31005KT P6SM SCT100=

USA.gov is the U.S. government's official web portal to all federal, state and local government web resources and services.